createdAt,value
2023-09-08T00:00:52.269Z,100207.63
2023-09-08T00:03:22.919Z,100211.19
2023-09-08T00:05:51.079Z,100209.53
2023-09-08T00:08:18.614Z,100207.78
2023-09-08T00:10:46.431Z,100211.22
2023-09-08T00:13:14.083Z,100212.41
2023-09-08T00:15:41.655Z,100209.44
2023-09-08T00:18:09.528Z,100213.41
2023-09-08T00:20:37.364Z,100216.09
2023-09-08T00:23:04.980Z,100213.81
2023-09-08T00:25:32.937Z,100219.25
2023-09-08T00:28:00.421Z,100212.75
2023-09-08T00:30:27.898Z,100215.34
2023-09-08T00:32:55.817Z,100214.84
2023-09-08T00:35:23.580Z,100209.41
2023-09-08T00:37:51.186Z,100218.97
2023-09-08T00:40:19.056Z,100216.06
2023-09-08T00:42:46.624Z,100203.13
2023-09-08T00:45:14.210Z,100208.91
2023-09-08T00:47:42.128Z,100203.13
2023-09-08T00:50:10.098Z,100199.91
2023-09-08T00:52:37.723Z,100204.13
2023-09-08T00:55:05.959Z,100206.28
2023-09-08T00:57:33.807Z,100195.63
2023-09-08T01:00:01.586Z,100194.69
2023-09-08T01:02:29.689Z,100190.88
2023-09-08T01:04:57.346Z,100190.41
2023-09-08T01:07:24.874Z,100191.28
2023-09-08T01:09:52.958Z,100180.88
2023-09-08T01:12:20.779Z,100178.50
2023-09-08T01:14:48.373Z,100184.88
2023-09-08T01:17:16.175Z,100184.91
2023-09-08T01:19:44.501Z,100183.19
2023-09-08T01:22:47.105Z,100193.03
2023-09-08T01:25:25.848Z,100193.91
2023-09-08T01:27:55.054Z,100184.22
2023-09-08T01:30:24.983Z,100180.63
2023-09-08T01:32:53.651Z,100184.03
2023-09-08T01:35:21.336Z,100176.37
2023-09-08T01:37:50.192Z,100174.00
2023-09-08T01:40:17.874Z,100171.66
2023-09-08T01:42:46.307Z,100174.19
2023-09-08T01:45:14.078Z,100176.56
2023-09-08T01:47:42.841Z,100181.16
2023-09-08T01:50:10.458Z,100176.44
2023-09-08T01:52:38.290Z,100173.53
2023-09-08T01:55:06.312Z,100171.31
2023-09-08T01:57:33.822Z,100166.22
2023-09-08T02:00:01.595Z,100173.00
2023-09-08T02:02:29.566Z,100172.87
2023-09-08T02:04:57.484Z,100169.59
2023-09-08T02:07:25.064Z,100176.22
2023-09-08T02:09:52.647Z,100179.75
2023-09-08T02:12:20.929Z,100173.31
2023-09-08T02:14:48.664Z,100169.81
2023-09-08T02:17:16.209Z,100177.19
2023-09-08T02:19:46.001Z,100181.00
2023-09-08T02:22:13.515Z,100171.72
2023-09-08T02:24:41.037Z,100176.75
2023-09-08T02:27:08.809Z,100168.97
2023-09-08T02:29:37.277Z,100173.25
2023-09-08T02:32:05.301Z,100174.50
2023-09-08T02:34:39.567Z,100169.81
2023-09-08T02:37:07.475Z,100168.97
2023-09-08T02:39:35.676Z,100172.75
2023-09-08T02:42:03.386Z,100174.75
2023-09-08T02:44:31.056Z,100172.59
2023-09-08T02:46:58.865Z,100176.66
2023-09-08T02:49:26.781Z,100187.53
2023-09-08T02:51:54.815Z,100185.28
2023-09-08T02:54:22.668Z,100182.44
2023-09-08T02:56:50.192Z,100176.16
2023-09-08T02:59:19.875Z,100175.13
2023-09-08T03:01:48.040Z,100183.69
2023-09-08T03:04:15.589Z,100180.50
2023-09-08T03:06:43.106Z,100176.37
2023-09-08T03:09:10.970Z,100183.91
2023-09-08T03:11:38.698Z,100173.59
2023-09-08T03:14:08.287Z,100179.34
2023-09-08T03:16:36.285Z,100175.78
2023-09-08T03:19:04.894Z,100175.91
2023-09-08T03:21:32.598Z,100179.53
2023-09-08T03:24:00.708Z,100175.16
2023-09-08T03:26:28.233Z,100177.19
2023-09-08T03:28:55.689Z,100186.72
2023-09-08T03:31:23.618Z,100178.00
2023-09-08T03:33:52.373Z,100182.78
2023-09-08T03:36:20.344Z,100179.56
2023-09-08T03:38:48.125Z,100181.72
2023-09-08T03:41:15.997Z,100189.66
2023-09-08T03:43:43.578Z,100174.56
2023-09-08T03:46:11.596Z,100181.03
2023-09-08T03:48:39.196Z,100178.31
2023-09-08T03:51:07.181Z,100175.44
2023-09-08T03:53:35.390Z,100183.28
2023-09-08T03:56:03.249Z,100180.00
2023-09-08T03:58:30.757Z,100183.75
2023-09-08T04:00:58.843Z,100187.88
2023-09-08T04:03:26.830Z,100194.13
2023-09-08T04:05:54.592Z,100187.28
2023-09-08T04:08:22.583Z,100187.62
2023-09-08T04:10:50.408Z,100187.69
2023-09-08T04:13:18.109Z,100191.56
2023-09-08T04:15:45.697Z,100196.19
2023-09-08T04:18:13.606Z,100187.59
2023-09-08T04:20:41.272Z,100186.47
2023-09-08T04:23:08.806Z,100184.19
2023-09-08T04:25:37.670Z,100184.06
2023-09-08T04:28:05.849Z,100191.22
2023-09-08T04:30:33.982Z,100183.28
2023-09-08T04:33:02.303Z,100193.44
2023-09-08T04:35:29.967Z,100191.44
2023-09-08T04:37:57.553Z,100192.53
2023-09-08T04:40:25.359Z,100194.59
2023-09-08T04:42:54.419Z,100196.84
2023-09-08T04:45:23.348Z,100196.53
2023-09-08T04:47:51.762Z,100200.47
2023-09-08T04:50:19.572Z,100193.66
2023-09-08T04:52:47.450Z,100194.91
2023-09-08T04:55:15.431Z,100190.16
2023-09-08T04:57:42.954Z,100202.94
2023-09-08T05:00:12.955Z,100202.06
2023-09-08T05:02:40.935Z,100203.97
2023-09-08T05:05:09.203Z,100205.19
2023-09-08T05:07:37.166Z,100202.00
2023-09-08T05:10:05.435Z,100200.13
2023-09-08T05:12:35.797Z,100200.50
2023-09-08T05:15:08.020Z,100205.44
2023-09-08T05:17:36.877Z,100202.34
2023-09-08T05:20:04.850Z,100209.22
2023-09-08T05:22:32.513Z,100203.69
2023-09-08T05:25:00.848Z,100202.22
2023-09-08T05:27:28.449Z,100207.19
2023-09-08T05:29:56.031Z,100206.03
2023-09-08T05:32:23.839Z,100207.66
2023-09-08T05:34:51.673Z,100207.91
2023-09-08T05:37:19.409Z,100216.94
2023-09-08T05:39:47.233Z,100212.50
2023-09-08T05:42:14.777Z,100209.09
2023-09-08T05:44:42.482Z,100211.09
2023-09-08T05:47:11.455Z,100203.75
2023-09-08T05:49:39.103Z,100207.69
2023-09-08T05:52:06.816Z,100212.81
2023-09-08T05:54:35.724Z,100217.00
2023-09-08T05:57:03.409Z,100207.38
2023-09-08T05:59:31.017Z,100203.44
2023-09-08T06:01:59.071Z,100209.53
2023-09-08T06:04:27.078Z,100210.37
2023-09-08T06:06:54.883Z,100214.47
2023-09-08T06:09:22.718Z,100205.63
2023-09-08T06:11:50.775Z,100208.97
2023-09-08T06:14:18.349Z,100206.97
2023-09-08T06:16:46.554Z,100216.28
2023-09-08T06:19:14.462Z,100217.66
2023-09-08T06:21:42.352Z,100225.84
2023-09-08T06:24:09.987Z,100221.94
2023-09-08T06:26:38.496Z,100219.16
2023-09-08T06:29:06.845Z,100225.25
2023-09-08T06:31:34.512Z,100227.44
2023-09-08T06:34:02.961Z,100222.50
2023-09-08T06:36:30.720Z,100222.81
2023-09-08T06:38:58.316Z,100221.03
2023-09-08T06:41:28.299Z,100225.25
2023-09-08T06:43:56.515Z,100230.56
2023-09-08T06:46:25.094Z,100229.25
2023-09-08T06:48:53.077Z,100232.06
2023-09-08T06:51:20.596Z,100224.94
2023-09-08T06:53:56.749Z,100221.03
2023-09-08T06:56:24.894Z,100230.41
2023-09-08T06:58:53.045Z,100225.62
2023-09-08T07:01:21.099Z,100221.66
2023-09-08T07:03:49.287Z,100226.50
2023-09-08T07:06:17.739Z,100230.09
2023-09-08T07:08:45.421Z,100226.06
2023-09-08T07:11:15.237Z,100226.66
2023-09-08T07:13:45.997Z,100224.94
2023-09-08T07:16:14.538Z,100223.81
2023-09-08T07:18:42.189Z,100222.12
2023-09-08T07:21:10.069Z,100224.22
2023-09-08T07:23:38.435Z,100215.50
2023-09-08T07:26:07.086Z,100214.28
2023-09-08T07:28:35.748Z,100215.12
2023-09-08T07:31:05.441Z,100214.16
2023-09-08T07:33:33.478Z,100211.91
2023-09-08T07:36:08.270Z,100204.72
2023-09-08T07:38:36.442Z,100202.63
2023-09-08T07:41:04.361Z,100205.00
2023-09-08T07:43:32.598Z,100200.75
2023-09-08T07:46:00.659Z,100201.72
2023-09-08T07:48:28.344Z,100195.41
2023-09-08T07:50:56.038Z,100193.31
2023-09-08T07:53:23.832Z,100197.81
2023-09-08T07:55:51.404Z,100196.06
2023-09-08T07:58:19.392Z,100195.44
2023-09-08T08:00:47.417Z,100196.31
2023-09-08T08:03:15.385Z,100199.63
2023-09-08T08:05:42.996Z,100193.84
2023-09-08T08:08:10.911Z,100197.88
2023-09-08T08:10:45.801Z,100199.41
2023-09-08T08:13:33.361Z,100200.19
2023-09-08T08:16:01.385Z,100194.81
2023-09-08T08:18:29.017Z,100200.44
2023-09-08T08:20:56.635Z,100204.28
2023-09-08T08:23:24.456Z,100199.84
2023-09-08T08:25:52.040Z,100195.16
2023-09-08T08:28:19.612Z,100201.53
2023-09-08T08:30:49.423Z,100193.41
2023-09-08T08:33:17.164Z,100191.44
2023-09-08T08:35:51.491Z,100186.66
2023-09-08T08:38:19.645Z,100186.47
2023-09-08T08:40:47.340Z,100193.59
2023-09-08T08:43:15.002Z,100180.72
2023-09-08T08:45:44.350Z,100177.75
2023-09-08T08:48:13.710Z,100184.16
2023-09-08T08:50:43.321Z,100179.97
2023-09-08T08:53:11.732Z,100183.81
2023-09-08T08:55:39.309Z,100181.31
2023-09-08T08:58:10.013Z,100181.09
2023-09-08T09:00:38.857Z,100177.09
2023-09-08T09:03:14.020Z,100177.09
2023-09-08T09:05:46.501Z,100171.81
2023-09-08T09:08:17.459Z,100171.00
2023-09-08T09:10:45.383Z,100177.97
2023-09-08T09:13:12.980Z,100178.19
2023-09-08T09:15:41.605Z,100170.56
2023-09-08T09:18:10.207Z,100171.22
2023-09-08T09:20:37.869Z,100170.59
2023-09-08T09:23:05.391Z,100166.34
2023-09-08T09:25:33.523Z,100163.38
2023-09-08T09:28:03.628Z,100163.72
2023-09-08T09:30:48.559Z,100162.87
2023-09-08T09:33:17.068Z,100165.69
2023-09-08T09:35:46.786Z,100159.34
2023-09-08T09:38:14.919Z,100155.03
2023-09-08T09:40:42.898Z,100156.09
2023-09-08T09:43:12.490Z,100160.53
2023-09-08T09:45:41.280Z,100158.03
2023-09-08T09:48:10.440Z,100157.88
2023-09-08T09:50:42.719Z,100160.88
2023-09-08T09:53:15.583Z,100158.87
2023-09-08T09:55:44.805Z,100163.81
2023-09-08T09:58:13.404Z,100157.66
2023-09-08T10:00:42.408Z,100156.72
2023-09-08T10:03:11.989Z,100155.34
2023-09-08T10:05:39.601Z,100157.41
2023-09-08T10:08:07.608Z,100164.38
2023-09-08T10:10:35.876Z,100158.28
2023-09-08T10:13:07.410Z,100158.06
2023-09-08T10:15:35.418Z,100154.59
2023-09-08T10:18:06.124Z,100152.06
2023-09-08T10:20:35.689Z,100146.09
2023-09-08T10:23:10.036Z,100142.28
2023-09-08T10:25:44.142Z,100145.03
2023-09-08T10:28:14.094Z,100151.22
2023-09-08T10:30:42.076Z,100141.06
2023-09-08T10:33:12.748Z,100137.69
2023-09-08T10:35:41.436Z,100135.03
2023-09-08T10:38:28.957Z,100135.87
2023-09-08T10:41:18.538Z,100131.75
2023-09-08T10:43:47.442Z,100133.09
2023-09-08T10:46:28.812Z,100127.22
2023-09-08T10:49:03.533Z,100118.69
2023-09-08T10:51:31.793Z,100135.34
2023-09-08T10:53:59.499Z,100132.88
2023-09-08T10:56:50.332Z,100131.87
2023-09-08T10:59:18.313Z,100124.53
2023-09-08T11:01:48.653Z,100127.53
2023-09-08T11:04:20.311Z,100128.50
2023-09-08T11:06:50.220Z,100118.00
2023-09-08T11:09:17.772Z,100120.38
2023-09-08T11:11:46.322Z,100127.34
2023-09-08T11:14:14.547Z,100121.94
2023-09-08T11:16:42.083Z,100118.53
2023-09-08T11:19:11.154Z,100120.62
2023-09-08T11:21:41.820Z,100117.19
2023-09-08T11:24:10.748Z,100117.38
2023-09-08T11:26:38.688Z,100114.47
2023-09-08T11:29:06.668Z,100106.75
2023-09-08T11:31:35.757Z,100104.63
2023-09-08T11:34:06.517Z,100097.16
2023-09-08T11:36:36.242Z,100093.03
2023-09-08T11:39:07.169Z,100092.94
2023-09-08T11:41:35.892Z,100101.59
2023-09-08T11:44:03.578Z,100095.13
2023-09-08T11:46:31.499Z,100094.72
2023-09-08T11:48:59.706Z,100097.06
2023-09-08T11:51:27.637Z,100092.19
2023-09-08T11:53:55.260Z,100088.34
2023-09-08T11:56:23.215Z,100084.53
2023-09-08T11:58:51.268Z,100078.63
2023-09-08T12:01:19.901Z,100083.63
2023-09-08T12:03:54.826Z,100081.72
2023-09-08T12:06:27.114Z,100084.09
2023-09-08T12:08:56.530Z,100082.72
2023-09-08T12:11:24.188Z,100067.22
2023-09-08T12:13:51.784Z,100072.06
2023-09-08T12:16:20.799Z,100068.34
2023-09-08T12:18:49.837Z,100073.44
2023-09-08T12:21:17.577Z,100063.41
2023-09-08T12:23:50.327Z,100060.41
2023-09-08T12:26:18.733Z,100057.97
2023-09-08T12:28:47.889Z,100052.66
2023-09-08T12:31:16.544Z,100055.22
2023-09-08T12:33:45.173Z,100052.22
2023-09-08T12:36:17.928Z,100041.31
2023-09-08T12:38:53.041Z,100043.22
2023-09-08T12:41:21.265Z,100048.00
2023-09-08T12:43:48.886Z,100043.56
2023-09-08T12:46:18.327Z,100040.97
2023-09-08T12:48:46.185Z,100032.97
2023-09-08T12:51:13.722Z,100037.63
2023-09-08T12:53:41.345Z,100041.84
2023-09-08T12:56:09.436Z,100039.38
2023-09-08T12:58:37.239Z,100031.22
2023-09-08T13:01:07.843Z,100028.94
2023-09-08T13:03:35.785Z,100030.28
2023-09-08T13:06:03.439Z,100019.72
2023-09-08T13:08:31.161Z,100028.91
2023-09-08T13:10:59.016Z,100022.63
2023-09-08T13:13:27.943Z,100021.41
2023-09-08T13:15:55.470Z,100023.00
2023-09-08T13:18:23.374Z,100018.00
2023-09-08T13:20:50.920Z,100013.31
2023-09-08T13:23:18.530Z,100009.94
2023-09-08T13:25:46.487Z,100014.63
2023-09-08T13:28:14.018Z,100014.56
2023-09-08T13:30:41.600Z,100012.47
2023-09-08T13:33:09.835Z,100002.25
2023-09-08T13:35:37.574Z,99992.69
2023-09-08T13:38:05.294Z,100001.09
2023-09-08T13:40:33.608Z,100008.34
2023-09-08T13:43:01.604Z,100000.09
2023-09-08T13:45:30.319Z,99996.53
2023-09-08T13:47:58.650Z,99993.47
2023-09-08T13:50:27.591Z,99983.69
2023-09-08T13:52:57.446Z,99988.22
2023-09-08T13:55:35.847Z,99983.31
2023-09-08T13:58:09.103Z,99975.84
2023-09-08T14:00:39.544Z,99973.88
2023-09-08T14:03:12.805Z,99971.50
2023-09-08T14:05:45.465Z,99971.19
2023-09-08T14:08:18.367Z,99970.69
2023-09-08T14:11:04.831Z,99967.94
2023-09-08T14:13:38.488Z,99968.13
2023-09-08T14:16:06.330Z,99964.44
2023-09-08T14:18:34.486Z,99964.06
2023-09-08T14:21:02.315Z,99960.63
2023-09-08T14:23:30.197Z,99966.06
2023-09-08T14:25:57.940Z,99960.28
2023-09-08T14:28:26.980Z,99955.37
2023-09-08T14:30:54.669Z,99955.00
2023-09-08T14:33:22.237Z,99963.66
2023-09-08T14:35:52.719Z,99959.44
2023-09-08T14:38:20.495Z,99957.00
2023-09-08T14:41:01.755Z,99961.97
2023-09-08T14:43:30.609Z,99954.50
2023-09-08T14:45:58.578Z,99952.03
2023-09-08T14:48:26.481Z,99950.75
2023-09-08T14:50:55.642Z,99949.34
2023-09-08T14:53:23.696Z,99941.34
2023-09-08T14:55:51.318Z,99942.53
2023-09-08T14:58:19.210Z,99944.19
2023-09-08T15:00:47.423Z,99937.03
2023-09-08T15:03:16.192Z,99944.19
2023-09-08T15:05:44.255Z,99948.28
2023-09-08T15:08:13.656Z,99947.66
2023-09-08T15:10:41.540Z,99942.03
2023-09-08T15:13:09.382Z,99946.91
2023-09-08T15:15:37.099Z,99949.84
2023-09-08T15:18:04.883Z,99941.47
2023-09-08T15:20:32.753Z,99947.00
2023-09-08T15:23:00.377Z,99943.19
2023-09-08T15:25:27.944Z,99940.75
2023-09-08T15:27:55.786Z,99934.56
2023-09-08T15:30:23.331Z,99942.25
2023-09-08T15:32:50.918Z,99933.16
2023-09-08T15:35:18.910Z,99936.00
2023-09-08T15:37:46.480Z,99937.03
2023-09-08T15:40:15.439Z,99939.56
2023-09-08T15:42:44.586Z,99938.34
2023-09-08T15:45:12.603Z,99941.56
2023-09-08T15:47:40.342Z,99942.94
2023-09-08T15:50:10.099Z,99941.41
2023-09-08T15:52:38.120Z,99932.78
2023-09-08T15:55:06.098Z,99936.62
2023-09-08T15:57:33.987Z,99931.16
2023-09-08T16:00:01.651Z,99938.50
2023-09-08T16:02:36.589Z,99931.22
2023-09-08T16:05:04.834Z,99930.78
2023-09-08T16:07:32.526Z,99929.31
2023-09-08T16:10:00.061Z,99925.81
2023-09-08T16:12:27.931Z,99922.28
2023-09-08T16:14:55.508Z,99922.34
2023-09-08T16:17:23.763Z,99924.19
2023-09-08T16:19:51.677Z,99925.34
2023-09-08T16:22:19.302Z,99926.44
2023-09-08T16:24:46.893Z,99923.53
2023-09-08T16:27:14.745Z,99921.84
2023-09-08T16:29:43.024Z,99918.25
2023-09-08T16:32:11.849Z,99917.66
2023-09-08T16:34:39.763Z,99926.28
2023-09-08T16:37:07.417Z,99921.12
2023-09-08T16:39:35.082Z,99921.03
2023-09-08T16:42:03.752Z,99927.47
2023-09-08T16:44:31.336Z,99918.84
2023-09-08T16:46:59.120Z,99916.28
2023-09-08T16:49:27.257Z,99920.22
2023-09-08T16:51:57.837Z,99926.81
2023-09-08T16:54:25.339Z,99922.81
2023-09-08T16:56:53.192Z,99930.69
2023-09-08T16:59:22.152Z,99928.62
2023-09-08T17:01:53.048Z,99929.44
2023-09-08T17:04:21.082Z,99930.34
2023-09-08T17:06:49.211Z,99924.16
2023-09-08T17:09:18.563Z,99924.22
2023-09-08T17:11:46.357Z,99933.53
2023-09-08T17:14:14.089Z,99933.22
2023-09-08T17:16:41.580Z,99929.84
2023-09-08T17:19:11.092Z,99932.09
2023-09-08T17:21:38.718Z,99939.78
2023-09-08T17:24:06.579Z,99940.72
2023-09-08T17:26:34.390Z,99943.59
2023-09-08T17:29:02.065Z,99946.84
2023-09-08T17:31:31.680Z,99947.31
2023-09-08T17:33:59.704Z,99948.63
2023-09-08T17:36:27.872Z,99955.91
2023-09-08T17:38:55.422Z,99961.03
2023-09-08T17:41:23.220Z,99956.28
2023-09-08T17:43:50.785Z,99961.41
2023-09-08T17:46:18.412Z,99971.81
2023-09-08T17:48:46.400Z,99969.09
2023-09-08T17:51:13.978Z,99972.44
2023-09-08T17:53:41.560Z,99965.94
2023-09-08T17:56:09.475Z,99975.25
2023-09-08T17:58:37.086Z,99975.66
2023-09-08T18:01:04.676Z,99979.25
2023-09-08T18:03:32.745Z,99980.94
2023-09-08T18:06:00.441Z,99984.50
2023-09-08T18:08:28.038Z,99979.63
2023-09-08T18:11:04.456Z,99982.72
2023-09-08T18:13:32.728Z,99988.16
2023-09-08T18:16:02.157Z,99985.03
2023-09-08T18:18:31.436Z,99987.75
2023-09-08T18:20:59.355Z,99991.72
2023-09-08T18:23:27.636Z,99992.91
2023-09-08T18:25:57.810Z,99991.22
2023-09-08T18:28:26.903Z,99995.53
2023-09-08T18:30:54.993Z,100003.53
2023-09-08T18:33:22.925Z,99988.31
2023-09-08T18:35:50.495Z,99991.25
2023-09-08T18:38:18.674Z,99995.16
2023-09-08T18:40:47.253Z,99993.91
2023-09-08T18:43:15.918Z,99988.41
2023-09-08T18:45:43.971Z,99995.53
2023-09-08T18:48:12.107Z,99997.47
2023-09-08T18:50:39.707Z,99988.41
2023-09-08T18:53:07.587Z,99994.13
2023-09-08T18:55:35.678Z,99987.72
2023-09-08T18:58:06.001Z,99986.00
2023-09-08T19:00:34.432Z,99993.31
2023-09-08T19:03:03.390Z,99983.75
2023-09-08T19:05:31.496Z,99980.38
2023-09-08T19:07:59.553Z,99985.78
2023-09-08T19:10:27.184Z,99990.66
2023-09-08T19:12:54.927Z,99980.28
2023-09-08T19:15:22.883Z,99990.75
2023-09-08T19:17:52.404Z,99980.66
2023-09-08T19:20:20.441Z,99979.63
2023-09-08T19:22:49.563Z,99986.41
2023-09-08T19:25:17.459Z,99978.00
2023-09-08T19:27:45.131Z,99979.75
2023-09-08T19:30:13.325Z,99982.03
2023-09-08T19:32:40.977Z,99976.19
2023-09-08T19:35:09.179Z,99977.69
2023-09-08T19:37:37.028Z,99983.53
2023-09-08T19:40:06.600Z,99982.22
2023-09-08T19:42:34.165Z,99988.84
2023-09-08T19:45:04.311Z,99984.38
2023-09-08T19:47:33.299Z,99988.91
2023-09-08T19:50:06.262Z,99985.81
2023-09-08T19:52:34.092Z,99986.59
2023-09-08T19:55:01.632Z,99988.34
2023-09-08T19:57:29.193Z,99995.75
2023-09-08T19:59:57.059Z,99980.59
2023-09-08T20:02:25.025Z,99994.09
2023-09-08T20:04:53.014Z,99987.97
2023-09-08T20:07:20.522Z,99990.53
2023-09-08T20:09:48.472Z,99992.38
2023-09-08T20:12:16.356Z,99990.81
2023-09-08T20:14:44.078Z,99989.41
2023-09-08T20:17:11.859Z,99991.13
2023-09-08T20:19:39.967Z,99991.75
2023-09-08T20:22:07.821Z,99989.97
2023-09-08T20:24:35.351Z,99992.72
2023-09-08T20:27:03.575Z,99992.69
2023-09-08T20:29:31.611Z,99989.59
2023-09-08T20:31:59.684Z,99982.72
2023-09-08T20:34:27.771Z,99992.31
2023-09-08T20:36:55.898Z,99984.50
2023-09-08T20:39:24.220Z,99987.31
2023-09-08T20:41:52.387Z,99991.72
2023-09-08T20:44:19.919Z,99987.13
2023-09-08T20:46:47.695Z,99995.31
2023-09-08T20:49:15.617Z,99988.59
2023-09-08T20:51:43.238Z,99982.09
2023-09-08T20:54:10.761Z,99986.34
2023-09-08T20:56:39.178Z,99987.28
2023-09-08T20:59:06.698Z,99986.91
2023-09-08T21:01:34.296Z,99981.25
2023-09-08T21:04:02.236Z,99975.31
2023-09-08T21:06:29.834Z,99983.59
2023-09-08T21:08:57.377Z,99982.91
2023-09-08T21:11:25.632Z,99983.81
2023-09-08T21:13:53.335Z,99977.47
2023-09-08T21:16:20.925Z,99979.56
2023-09-08T21:18:48.696Z,99984.56
2023-09-08T21:21:16.172Z,99979.25
2023-09-08T21:23:43.725Z,99974.28
2023-09-08T21:26:11.711Z,99978.37
2023-09-08T21:28:39.300Z,99979.88
2023-09-08T21:31:08.902Z,99977.50
2023-09-08T21:33:38.827Z,99984.91
2023-09-08T21:36:07.943Z,99986.41
2023-09-08T21:38:35.723Z,99980.22
2023-09-08T21:41:10.820Z,99982.12
2023-09-08T21:43:39.249Z,99987.41
2023-09-08T21:46:08.457Z,99978.31
2023-09-08T21:48:36.934Z,99986.91
2023-09-08T21:51:05.401Z,99988.00
2023-09-08T21:53:33.380Z,99987.66
2023-09-08T21:56:01.027Z,99987.06
2023-09-08T21:58:28.779Z,99976.38
2023-09-08T22:00:57.376Z,99971.81
2023-09-08T22:03:25.423Z,99971.09
2023-09-08T22:05:53.304Z,99977.59
2023-09-08T22:08:20.824Z,99978.94
2023-09-08T22:10:48.646Z,99976.69
2023-09-08T22:13:16.115Z,99977.13
2023-09-08T22:15:43.791Z,99975.72
2023-09-08T22:18:11.689Z,99968.59
2023-09-08T22:20:41.130Z,99973.00
2023-09-08T22:23:10.077Z,99968.88
2023-09-08T22:25:39.753Z,99976.19
2023-09-08T22:28:07.818Z,99973.47
2023-09-08T22:30:35.398Z,99971.94
2023-09-08T22:33:04.419Z,99971.59
2023-09-08T22:35:32.143Z,99972.91
2023-09-08T22:37:59.731Z,99971.28
2023-09-08T22:40:27.833Z,99969.16
2023-09-08T22:42:55.473Z,99964.69
2023-09-08T22:45:23.682Z,99960.19
2023-09-08T22:47:51.581Z,99967.81
2023-09-08T22:50:19.294Z,99969.22
2023-09-08T22:52:46.927Z,99961.31
2023-09-08T22:55:25.212Z,99963.53
2023-09-08T22:57:54.639Z,99964.03
2023-09-08T23:00:23.501Z,99962.63
2023-09-08T23:02:51.230Z,99957.59
2023-09-08T23:05:18.854Z,99963.34
2023-09-08T23:07:46.848Z,99966.75
2023-09-08T23:10:15.293Z,99958.62
2023-09-08T23:12:43.019Z,99968.00
2023-09-08T23:15:11.153Z,99971.75
2023-09-08T23:17:39.282Z,99962.09
2023-09-08T23:20:16.840Z,99972.59
2023-09-08T23:22:45.294Z,99972.59
2023-09-08T23:25:13.432Z,99966.34
2023-09-08T23:27:41.073Z,99972.50
2023-09-08T23:30:10.156Z,99971.94
2023-09-08T23:32:37.896Z,99970.25
2023-09-08T23:35:06.894Z,99964.84
2023-09-08T23:37:34.803Z,99972.44
2023-09-08T23:40:05.548Z,99974.97
2023-09-08T23:42:33.072Z,99966.78
2023-09-08T23:45:00.884Z,99969.38
2023-09-08T23:47:28.382Z,99969.16
2023-09-08T23:49:55.998Z,99970.06
2023-09-08T23:52:23.749Z,99966.16
2023-09-08T23:54:51.241Z,99968.69
2023-09-08T23:57:18.804Z,99963.47
2023-09-08T23:59:47.862Z,99962.13
